sensor_id;sensor_type;location;lat;lon;timestamp;P1;durP1;ratioP1;P2;durP2;ratioP2
30010;SDS011;16851;53.564;8.112;2023-04-24T00:00:13;14.43;;;8.70;;
30010;SDS011;16851;53.564;8.112;2023-04-24T00:05:18;11.55;;;9.07;;
30010;SDS011;16851;53.564;8.112;2023-04-24T00:10:23;11.13;;;8.57;;
30010;SDS011;16851;53.564;8.112;2023-04-24T00:15:24;10.55;;;8.40;;
30010;SDS011;16851;53.564;8.112;2023-04-24T00:20:26;13.32;;;9.73;;
30010;SDS011;16851;53.564;8.112;2023-04-24T00:25:30;12.18;;;9.32;;
30010;SDS011;16851;53.564;8.112;2023-04-24T00:30:37;12.10;;;8.98;;
30010;SDS011;16851;53.564;8.112;2023-04-24T00:35:41;9.98;;;7.50;;
30010;SDS011;16851;53.564;8.112;2023-04-24T00:40:45;9.80;;;7.80;;
30010;SDS011;16851;53.564;8.112;2023-04-24T00:45:51;7.43;;;5.63;;
30010;SDS011;16851;53.564;8.112;2023-04-24T00:50:55;8.18;;;5.43;;
30010;SDS011;16851;53.564;8.112;2023-04-24T00:55:57;7.28;;;6.00;;
30010;SDS011;16851;53.564;8.112;2023-04-24T01:01:03;6.55;;;3.25;;
30010;SDS011;16851;53.564;8.112;2023-04-24T01:06:10;2.90;;;1.80;;
30010;SDS011;16851;53.564;8.112;2023-04-24T01:11:12;2.65;;;1.40;;
30010;SDS011;16851;53.564;8.112;2023-04-24T01:16:14;1.33;;;1.10;;
30010;SDS011;16851;53.564;8.112;2023-04-24T01:21:19;1.67;;;0.85;;
30010;SDS011;16851;53.564;8.112;2023-04-24T01:26:29;0.80;;;0.77;;
30010;SDS011;16851;53.564;8.112;2023-04-24T01:31:34;2.15;;;1.00;;
30010;SDS011;16851;53.564;8.112;2023-04-24T01:36:38;1.47;;;1.10;;
30010;SDS011;16851;53.564;8.112;2023-04-24T01:41:40;1.05;;;0.90;;
30010;SDS011;16851;53.564;8.112;2023-04-24T01:46:45;1.10;;;1.00;;
30010;SDS011;16851;53.564;8.112;2023-04-24T01:51:47;1.52;;;1.25;;
30010;SDS011;16851;53.564;8.112;2023-04-24T01:56:48;4.15;;;1.38;;
30010;SDS011;16851;53.564;8.112;2023-04-24T02:01:55;2.05;;;1.60;;
30010;SDS011;16851;53.564;8.112;2023-04-24T02:06:59;3.33;;;1.80;;
30010;SDS011;16851;53.564;8.112;2023-04-24T02:12:01;2.22;;;2.03;;
30010;SDS011;16851;53.564;8.112;2023-04-24T02:17:03;4.45;;;2.45;;
30010;SDS011;16851;53.564;8.112;2023-04-24T02:22:10;3.90;;;3.10;;
30010;SDS011;16851;53.564;8.112;2023-04-24T02:27:12;4.13;;;3.72;;
30010;SDS011;16851;53.564;8.112;2023-04-24T02:32:19;4.93;;;4.33;;
30010;SDS011;16851;53.564;8.112;2023-04-24T02:37:25;4.45;;;3.95;;
30010;SDS011;16851;53.564;8.112;2023-04-24T02:42:27;5.37;;;3.80;;
30010;SDS011;16851;53.564;8.112;2023-04-24T02:47:33;6.97;;;4.73;;
30010;SDS011;16851;53.564;8.112;2023-04-24T02:52:38;5.13;;;4.53;;
30010;SDS011;16851;53.564;8.112;2023-04-24T02:57:40;7.43;;;5.63;;
30010;SDS011;16851;53.564;8.112;2023-04-24T03:02:45;4.77;;;4.37;;
30010;SDS011;16851;53.564;8.112;2023-04-24T03:07:47;6.13;;;5.53;;
30010;SDS011;16851;53.564;8.112;2023-04-24T03:12:51;12.13;;;7.50;;
30010;SDS011;16851;53.564;8.112;2023-04-24T03:17:56;10.80;;;8.23;;
30010;SDS011;16851;53.564;8.112;2023-04-24T03:22:58;9.00;;;8.00;;
30010;SDS011;16851;53.564;8.112;2023-04-24T03:28:02;11.70;;;9.20;;
30010;SDS011;16851;53.564;8.112;2023-04-24T03:33:13;11.83;;;9.77;;
30010;SDS011;16851;53.564;8.112;2023-04-24T03:38:23;13.97;;;10.90;;
30010;SDS011;16851;53.564;8.112;2023-04-24T03:43:52;13.20;;;11.10;;
30010;SDS011;16851;53.564;8.112;2023-04-24T03:48:56;11.47;;;9.10;;
30010;SDS011;16851;53.564;8.112;2023-04-24T03:54:02;18.50;;;13.85;;
30010;SDS011;16851;53.564;8.112;2023-04-24T03:59:06;16.80;;;12.90;;
30010;SDS011;16851;53.564;8.112;2023-04-24T04:04:12;17.50;;;12.40;;
30010;SDS011;16851;53.564;8.112;2023-04-24T04:09:15;13.37;;;10.37;;
30010;SDS011;16851;53.564;8.112;2023-04-24T04:14:17;21.50;;;12.40;;
30010;SDS011;16851;53.564;8.112;2023-04-24T04:19:22;17.90;;;12.87;;
30010;SDS011;16851;53.564;8.112;2023-04-24T04:24:24;15.67;;;12.70;;
30010;SDS011;16851;53.564;8.112;2023-04-24T04:29:28;16.67;;;11.37;;
30010;SDS011;16851;53.564;8.112;2023-04-24T04:34:33;16.67;;;13.33;;
30010;SDS011;16851;53.564;8.112;2023-04-24T04:39:40;13.00;;;10.80;;
30010;SDS011;16851;53.564;8.112;2023-04-24T04:44:47;14.13;;;10.83;;
30010;SDS011;16851;53.564;8.112;2023-04-24T04:49:56;12.83;;;10.27;;
30010;SDS011;16851;53.564;8.112;2023-04-24T04:55:01;9.67;;;8.63;;
30010;SDS011;16851;53.564;8.112;2023-04-24T05:00:22;12.97;;;9.07;;
30010;SDS011;16851;53.564;8.112;2023-04-24T05:05:29;14.17;;;11.30;;
30010;SDS011;16851;53.564;8.112;2023-04-24T05:10:31;14.98;;;13.13;;
30010;SDS011;16851;53.564;8.112;2023-04-24T05:15:35;13.07;;;10.77;;
30010;SDS011;16851;53.564;8.112;2023-04-24T05:20:40;14.63;;;12.07;;
30010;SDS011;16851;53.564;8.112;2023-04-24T05:25:42;13.17;;;10.60;;
30010;SDS011;16851;53.564;8.112;2023-04-24T05:30:47;11.80;;;10.17;;
30010;SDS011;16851;53.564;8.112;2023-04-24T05:35:54;12.47;;;10.30;;
30010;SDS011;16851;53.564;8.112;2023-04-24T05:40:56;11.07;;;9.20;;
30010;SDS011;16851;53.564;8.112;2023-04-24T05:45:58;12.57;;;9.23;;
30010;SDS011;16851;53.564;8.112;2023-04-24T05:51:00;10.73;;;8.00;;
30010;SDS011;16851;53.564;8.112;2023-04-24T05:56:07;10.47;;;8.67;;
30010;SDS011;16851;53.564;8.112;2023-04-24T06:01:09;11.30;;;9.67;;
30010;SDS011;16851;53.564;8.112;2023-04-24T06:06:14;11.50;;;8.70;;
30010;SDS011;16851;53.564;8.112;2023-04-24T06:11:18;8.20;;;6.73;;
30010;SDS011;16851;53.564;8.112;2023-04-24T06:16:22;10.70;;;8.47;;
30010;SDS011;16851;53.564;8.112;2023-04-24T06:21:33;10.50;;;8.10;;
30010;SDS011;16851;53.564;8.112;2023-04-24T06:26:35;8.87;;;7.23;;
30010;SDS011;16851;53.564;8.112;2023-04-24T06:31:41;6.13;;;5.43;;
30010;SDS011;16851;53.564;8.112;2023-04-24T06:36:44;7.30;;;6.20;;
30010;SDS011;16851;53.564;8.112;2023-04-24T06:41:46;6.30;;;5.70;;
30010;SDS011;16851;53.564;8.112;2023-04-24T06:46:53;8.10;;;5.40;;
30010;SDS011;16851;53.564;8.112;2023-04-24T06:51:55;6.47;;;5.40;;
30010;SDS011;16851;53.564;8.112;2023-04-24T06:56:59;7.40;;;5.40;;
30010;SDS011;16851;53.564;8.112;2023-04-24T07:02:04;5.20;;;4.70;;
30010;SDS011;16851;53.564;8.112;2023-04-24T07:07:06;6.40;;;5.17;;
30010;SDS011;16851;53.564;8.112;2023-04-24T07:12:16;6.67;;;4.97;;
30010;SDS011;16851;53.564;8.112;2023-04-24T07:17:18;4.37;;;3.97;;
30010;SDS011;16851;53.564;8.112;2023-04-24T07:22:22;5.60;;;4.93;;
30010;SDS011;16851;53.564;8.112;2023-04-24T07:27:25;5.03;;;4.53;;
30010;SDS011;16851;53.564;8.112;2023-04-24T07:32:27;5.77;;;3.90;;
30010;SDS011;16851;53.564;8.112;2023-04-24T07:37:34;5.17;;;4.10;;
30010;SDS011;16851;53.564;8.112;2023-04-24T07:42:35;6.23;;;3.90;;
30010;SDS011;16851;53.564;8.112;2023-04-24T07:47:37;6.32;;;4.13;;
30010;SDS011;16851;53.564;8.112;2023-04-24T07:52:41;4.43;;;3.60;;
30010;SDS011;16851;53.564;8.112;2023-04-24T07:57:42;3.88;;;3.47;;
30010;SDS011;16851;53.564;8.112;2023-04-24T08:02:44;4.50;;;4.10;;
30010;SDS011;16851;53.564;8.112;2023-04-24T08:07:49;5.28;;;3.30;;
30010;SDS011;16851;53.564;8.112;2023-04-24T08:12:51;3.85;;;3.42;;
30010;SDS011;16851;53.564;8.112;2023-04-24T08:18:00;4.43;;;4.03;;
30010;SDS011;16851;53.564;8.112;2023-04-24T08:23:02;5.25;;;4.32;;
30010;SDS011;16851;53.564;8.112;2023-04-24T08:28:06;4.03;;;3.63;;
30010;SDS011;16851;53.564;8.112;2023-04-24T08:33:10;4.40;;;3.70;;
30010;SDS011;16851;53.564;8.112;2023-04-24T08:38:16;4.22;;;3.83;;
30010;SDS011;16851;53.564;8.112;2023-04-24T08:43:21;5.00;;;3.92;;
30010;SDS011;16851;53.564;8.112;2023-04-24T08:48:25;5.93;;;5.13;;
30010;SDS011;16851;53.564;8.112;2023-04-24T08:53:32;6.60;;;5.60;;
30010;SDS011;16851;53.564;8.112;2023-04-24T08:58:37;6.17;;;5.57;;
30010;SDS011;16851;53.564;8.112;2023-04-24T09:03:42;4.82;;;4.30;;
30010;SDS011;16851;53.564;8.112;2023-04-24T09:08:47;5.63;;;4.00;;
30010;SDS011;16851;53.564;8.112;2023-04-24T09:13:53;6.57;;;4.43;;
30010;SDS011;16851;53.564;8.112;2023-04-24T09:18:56;6.27;;;4.30;;
30010;SDS011;16851;53.564;8.112;2023-04-24T09:24:05;3.97;;;3.30;;
30010;SDS011;16851;53.564;8.112;2023-04-24T09:29:17;3.53;;;2.83;;
30010;SDS011;16851;53.564;8.112;2023-04-24T09:34:22;4.97;;;3.87;;
30010;SDS011;16851;53.564;8.112;2023-04-24T09:39:25;6.30;;;3.93;;
30010;SDS011;16851;53.564;8.112;2023-04-24T09:44:29;6.23;;;4.90;;
30010;SDS011;16851;53.564;8.112;2023-04-24T09:49:35;6.68;;;5.78;;
30010;SDS011;16851;53.564;8.112;2023-04-24T09:54:47;8.50;;;7.10;;
30010;SDS011;16851;53.564;8.112;2023-04-24T09:59:54;14.97;;;9.17;;
30010;SDS011;16851;53.564;8.112;2023-04-24T10:04:56;10.93;;;8.13;;
30010;SDS011;16851;53.564;8.112;2023-04-24T10:10:02;10.53;;;7.53;;
30010;SDS011;16851;53.564;8.112;2023-04-24T10:15:09;11.07;;;8.30;;
30010;SDS011;16851;53.564;8.112;2023-04-24T10:20:14;19.50;;;10.03;;
30010;SDS011;16851;53.564;8.112;2023-04-24T10:25:17;14.30;;;8.30;;
30010;SDS011;16851;53.564;8.112;2023-04-24T10:30:26;13.93;;;7.93;;
30010;SDS011;16851;53.564;8.112;2023-04-24T10:35:30;17.13;;;10.20;;
30010;SDS011;16851;53.564;8.112;2023-04-24T10:40:33;24.53;;;12.77;;
30010;SDS011;16851;53.564;8.112;2023-04-24T10:45:38;17.00;;;10.93;;
30010;SDS011;16851;53.564;8.112;2023-04-24T10:55:50;8.53;;;4.47;;
30010;SDS011;16851;53.564;8.112;2023-04-24T11:00:59;10.10;;;4.10;;
30010;SDS011;16851;53.564;8.112;2023-04-24T11:06:07;19.77;;;7.77;;
30010;SDS011;16851;53.564;8.112;2023-04-24T11:21:18;21.27;;;12.07;;
30010;SDS011;16851;53.564;8.112;2023-04-24T11:26:22;22.67;;;14.85;;
30010;SDS011;16851;53.564;8.112;2023-04-24T11:31:40;24.43;;;14.33;;
30010;SDS011;16851;53.564;8.112;2023-04-24T11:36:46;23.63;;;12.27;;
30010;SDS011;16851;53.564;8.112;2023-04-24T11:41:53;26.43;;;15.27;;
30010;SDS011;16851;53.564;8.112;2023-04-24T11:47:04;27.40;;;15.90;;
30010;SDS011;16851;53.564;8.112;2023-04-24T11:52:11;32.72;;;17.23;;
30010;SDS011;16851;53.564;8.112;2023-04-24T11:57:20;30.30;;;18.57;;
30010;SDS011;16851;53.564;8.112;2023-04-24T12:02:23;28.60;;;16.60;;
30010;SDS011;16851;53.564;8.112;2023-04-24T12:07:27;24.00;;;15.20;;
30010;SDS011;16851;53.564;8.112;2023-04-24T12:12:31;33.57;;;19.60;;
30010;SDS011;16851;53.564;8.112;2023-04-24T12:17:35;39.53;;;24.50;;
30010;SDS011;16851;53.564;8.112;2023-04-24T12:22:52;55.17;;;30.27;;
30010;SDS011;16851;53.564;8.112;2023-04-24T12:33:05;50.93;;;28.93;;
30010;SDS011;16851;53.564;8.112;2023-04-24T12:38:12;37.03;;;21.83;;
30010;SDS011;16851;53.564;8.112;2023-04-24T12:43:19;48.13;;;26.83;;
30010;SDS011;16851;53.564;8.112;2023-04-24T12:48:23;38.23;;;21.00;;
30010;SDS011;16851;53.564;8.112;2023-04-24T12:53:28;41.17;;;23.73;;
30010;SDS011;16851;53.564;8.112;2023-04-24T12:58:34;38.97;;;21.20;;
30010;SDS011;16851;53.564;8.112;2023-04-24T13:03:36;27.87;;;18.80;;
30010;SDS011;16851;53.564;8.112;2023-04-24T13:08:39;22.70;;;14.73;;
30010;SDS011;16851;53.564;8.112;2023-04-24T13:13:46;33.17;;;20.70;;
30010;SDS011;16851;53.564;8.112;2023-04-24T13:18:50;40.07;;;21.70;;
30010;SDS011;16851;53.564;8.112;2023-04-24T13:23:57;30.50;;;17.17;;
30010;SDS011;16851;53.564;8.112;2023-04-24T13:28:59;27.50;;;14.53;;
30010;SDS011;16851;53.564;8.112;2023-04-24T13:34:03;33.00;;;16.53;;
30010;SDS011;16851;53.564;8.112;2023-04-24T13:39:10;36.43;;;14.90;;
30010;SDS011;16851;53.564;8.112;2023-04-24T13:44:19;30.10;;;14.03;;
30010;SDS011;16851;53.564;8.112;2023-04-24T13:49:22;35.97;;;14.40;;
30010;SDS011;16851;53.564;8.112;2023-04-24T13:54:26;32.93;;;14.43;;
30010;SDS011;16851;53.564;8.112;2023-04-24T13:59:28;37.13;;;15.67;;
30010;SDS011;16851;53.564;8.112;2023-04-24T14:04:31;37.83;;;14.17;;
30010;SDS011;16851;53.564;8.112;2023-04-24T14:09:33;42.10;;;16.53;;
30010;SDS011;16851;53.564;8.112;2023-04-24T14:14:38;32.30;;;14.27;;
30010;SDS011;16851;53.564;8.112;2023-04-24T14:19:40;30.87;;;14.13;;
30010;SDS011;16851;53.564;8.112;2023-04-24T14:24:46;34.87;;;16.03;;
30010;SDS011;16851;53.564;8.112;2023-04-24T14:29:53;36.00;;;14.13;;
30010;SDS011;16851;53.564;8.112;2023-04-24T14:34:58;38.87;;;14.87;;
30010;SDS011;16851;53.564;8.112;2023-04-24T14:40:02;31.20;;;12.53;;
30010;SDS011;16851;53.564;8.112;2023-04-24T14:45:26;27.93;;;10.60;;
30010;SDS011;16851;53.564;8.112;2023-04-24T14:50:33;30.13;;;11.23;;
30010;SDS011;16851;53.564;8.112;2023-04-24T14:55:35;21.60;;;10.13;;
30010;SDS011;16851;53.564;8.112;2023-04-24T15:00:37;18.35;;;8.00;;
30010;SDS011;16851;53.564;8.112;2023-04-24T15:05:41;22.37;;;9.00;;
30010;SDS011;16851;53.564;8.112;2023-04-24T15:10:46;19.07;;;6.63;;
30010;SDS011;16851;53.564;8.112;2023-04-24T15:15:48;11.17;;;4.90;;
30010;SDS011;16851;53.564;8.112;2023-04-24T15:20:52;13.50;;;4.80;;
30010;SDS011;16851;53.564;8.112;2023-04-24T15:25:54;12.53;;;3.67;;
30010;SDS011;16851;53.564;8.112;2023-04-24T15:30:56;12.70;;;3.73;;
30010;SDS011;16851;53.564;8.112;2023-04-24T15:35:57;11.20;;;3.27;;
30010;SDS011;16851;53.564;8.112;2023-04-24T15:40:59;12.97;;;2.60;;
30010;SDS011;16851;53.564;8.112;2023-04-24T15:46:01;10.00;;;2.37;;
30010;SDS011;16851;53.564;8.112;2023-04-24T15:51:04;12.23;;;2.00;;
30010;SDS011;16851;53.564;8.112;2023-04-24T15:56:09;10.03;;;2.30;;
30010;SDS011;16851;53.564;8.112;2023-04-24T16:01:13;10.03;;;2.40;;
30010;SDS011;16851;53.564;8.112;2023-04-24T16:06:19;11.77;;;2.30;;
30010;SDS011;16851;53.564;8.112;2023-04-24T16:11:21;6.63;;;2.10;;
30010;SDS011;16851;53.564;8.112;2023-04-24T16:16:23;12.83;;;2.17;;
30010;SDS011;16851;53.564;8.112;2023-04-24T16:21:25;10.70;;;2.60;;
30010;SDS011;16851;53.564;8.112;2023-04-24T16:26:31;5.23;;;2.30;;
30010;SDS011;16851;53.564;8.112;2023-04-24T16:31:36;10.70;;;2.60;;
30010;SDS011;16851;53.564;8.112;2023-04-24T16:36:41;11.77;;;2.77;;
30010;SDS011;16851;53.564;8.112;2023-04-24T16:41:43;7.13;;;2.47;;
30010;SDS011;16851;53.564;8.112;2023-04-24T16:46:48;6.80;;;2.43;;
30010;SDS011;16851;53.564;8.112;2023-04-24T16:51:52;7.57;;;2.33;;
30010;SDS011;16851;53.564;8.112;2023-04-24T16:57:01;6.67;;;2.30;;
30010;SDS011;16851;53.564;8.112;2023-04-24T17:02:04;9.03;;;2.50;;
30010;SDS011;16851;53.564;8.112;2023-04-24T17:07:08;5.67;;;2.30;;
30010;SDS011;16851;53.564;8.112;2023-04-24T17:12:10;8.90;;;2.60;;
30010;SDS011;16851;53.564;8.112;2023-04-24T17:17:14;9.17;;;2.70;;
30010;SDS011;16851;53.564;8.112;2023-04-24T17:22:17;7.07;;;2.90;;
30010;SDS011;16851;53.564;8.112;2023-04-24T17:27:20;6.67;;;3.43;;
30010;SDS011;16851;53.564;8.112;2023-04-24T17:32:25;9.17;;;3.27;;
30010;SDS011;16851;53.564;8.112;2023-04-24T17:37:40;7.27;;;3.53;;
30010;SDS011;16851;53.564;8.112;2023-04-24T17:42:48;9.87;;;3.37;;
30010;SDS011;16851;53.564;8.112;2023-04-24T17:47:50;8.57;;;3.40;;
30010;SDS011;16851;53.564;8.112;2023-04-24T17:52:52;9.80;;;4.07;;
30010;SDS011;16851;53.564;8.112;2023-04-24T17:57:53;5.90;;;3.30;;
30010;SDS011;16851;53.564;8.112;2023-04-24T18:02:55;7.97;;;3.20;;
30010;SDS011;16851;53.564;8.112;2023-04-24T18:08:04;9.30;;;3.63;;
30010;SDS011;16851;53.564;8.112;2023-04-24T18:13:11;8.53;;;3.73;;
30010;SDS011;16851;53.564;8.112;2023-04-24T18:18:15;13.37;;;4.33;;
30010;SDS011;16851;53.564;8.112;2023-04-24T18:23:18;9.53;;;4.57;;
30010;SDS011;16851;53.564;8.112;2023-04-24T18:28:22;11.87;;;6.20;;
30010;SDS011;16851;53.564;8.112;2023-04-24T18:33:29;11.60;;;4.63;;
30010;SDS011;16851;53.564;8.112;2023-04-24T18:38:33;11.63;;;4.77;;
30010;SDS011;16851;53.564;8.112;2023-04-24T18:43:36;10.97;;;4.00;;
30010;SDS011;16851;53.564;8.112;2023-04-24T18:48:38;9.97;;;4.60;;
30010;SDS011;16851;53.564;8.112;2023-04-24T18:53:40;11.50;;;3.90;;
30010;SDS011;16851;53.564;8.112;2023-04-24T18:58:42;9.68;;;3.25;;
30010;SDS011;16851;53.564;8.112;2023-04-24T19:03:47;6.93;;;2.90;;
30010;SDS011;16851;53.564;8.112;2023-04-24T19:08:49;6.37;;;3.07;;
30010;SDS011;16851;53.564;8.112;2023-04-24T19:13:55;10.30;;;3.60;;
30010;SDS011;16851;53.564;8.112;2023-04-24T19:18:57;5.27;;;2.50;;
30010;SDS011;16851;53.564;8.112;2023-04-24T19:24:10;8.13;;;3.00;;
30010;SDS011;16851;53.564;8.112;2023-04-24T19:29:12;7.73;;;2.50;;
30010;SDS011;16851;53.564;8.112;2023-04-24T19:34:14;9.10;;;3.03;;
30010;SDS011;16851;53.564;8.112;2023-04-24T19:39:18;9.20;;;3.70;;
30010;SDS011;16851;53.564;8.112;2023-04-24T19:44:19;8.33;;;3.03;;
30010;SDS011;16851;53.564;8.112;2023-04-24T19:49:21;10.47;;;3.73;;
30010;SDS011;16851;53.564;8.112;2023-04-24T19:54:25;9.87;;;3.60;;
30010;SDS011;16851;53.564;8.112;2023-04-24T19:59:29;9.73;;;3.53;;
30010;SDS011;16851;53.564;8.112;2023-04-24T20:04:36;8.60;;;3.27;;
30010;SDS011;16851;53.564;8.112;2023-04-24T20:09:39;9.20;;;3.40;;
30010;SDS011;16851;53.564;8.112;2023-04-24T20:14:46;8.23;;;3.50;;
30010;SDS011;16851;53.564;8.112;2023-04-24T20:19:48;9.18;;;4.00;;
30010;SDS011;16851;53.564;8.112;2023-04-24T20:24:55;5.87;;;3.40;;
30010;SDS011;16851;53.564;8.112;2023-04-24T20:29:59;11.53;;;3.53;;
30010;SDS011;16851;53.564;8.112;2023-04-24T20:35:01;7.37;;;3.80;;
30010;SDS011;16851;53.564;8.112;2023-04-24T20:40:08;9.03;;;3.80;;
30010;SDS011;16851;53.564;8.112;2023-04-24T20:45:10;12.70;;;4.80;;
30010;SDS011;16851;53.564;8.112;2023-04-24T20:50:12;12.70;;;4.57;;
30010;SDS011;16851;53.564;8.112;2023-04-24T20:55:16;13.30;;;5.03;;
30010;SDS011;16851;53.564;8.112;2023-04-24T21:00:18;8.03;;;4.23;;
30010;SDS011;16851;53.564;8.112;2023-04-24T21:05:20;19.43;;;4.53;;
30010;SDS011;16851;53.564;8.112;2023-04-24T21:10:22;19.20;;;5.43;;
30010;SDS011;16851;53.564;8.112;2023-04-24T21:15:24;13.03;;;4.90;;
30010;SDS011;16851;53.564;8.112;2023-04-24T21:20:28;19.90;;;5.87;;
30010;SDS011;16851;53.564;8.112;2023-04-24T21:25:30;14.80;;;5.67;;
30010;SDS011;16851;53.564;8.112;2023-04-24T21:30:34;13.00;;;5.77;;
30010;SDS011;16851;53.564;8.112;2023-04-24T21:35:41;17.00;;;6.17;;
30010;SDS011;16851;53.564;8.112;2023-04-24T21:40:43;21.57;;;8.17;;
30010;SDS011;16851;53.564;8.112;2023-04-24T21:45:45;35.67;;;7.87;;
30010;SDS011;16851;53.564;8.112;2023-04-24T21:50:47;42.63;;;8.30;;
30010;SDS011;16851;53.564;8.112;2023-04-24T21:55:51;50.03;;;9.20;;
30010;SDS011;16851;53.564;8.112;2023-04-24T22:00:53;47.47;;;9.27;;
30010;SDS011;16851;53.564;8.112;2023-04-24T22:05:57;37.43;;;7.13;;
30010;SDS011;16851;53.564;8.112;2023-04-24T22:11:01;35.80;;;6.97;;
30010;SDS011;16851;53.564;8.112;2023-04-24T22:16:04;31.57;;;5.80;;
30010;SDS011;16851;53.564;8.112;2023-04-24T22:21:09;29.03;;;6.60;;
30010;SDS011;16851;53.564;8.112;2023-04-24T22:26:11;29.43;;;6.07;;
30010;SDS011;16851;53.564;8.112;2023-04-24T22:31:15;34.53;;;6.70;;
30010;SDS011;16851;53.564;8.112;2023-04-24T22:36:19;31.73;;;5.97;;
30010;SDS011;16851;53.564;8.112;2023-04-24T22:41:24;40.30;;;7.37;;
30010;SDS011;16851;53.564;8.112;2023-04-24T22:46:28;32.53;;;6.40;;
30010;SDS011;16851;53.564;8.112;2023-04-24T22:51:31;30.80;;;6.13;;
30010;SDS011;16851;53.564;8.112;2023-04-24T22:56:36;34.57;;;6.47;;
30010;SDS011;16851;53.564;8.112;2023-04-24T23:01:38;34.40;;;6.87;;
30010;SDS011;16851;53.564;8.112;2023-04-24T23:06:44;35.73;;;6.20;;
30010;SDS011;16851;53.564;8.112;2023-04-24T23:11:48;32.37;;;6.67;;
30010;SDS011;16851;53.564;8.112;2023-04-24T23:16:52;35.20;;;6.63;;
30010;SDS011;16851;53.564;8.112;2023-04-24T23:21:54;33.17;;;6.00;;
30010;SDS011;16851;53.564;8.112;2023-04-24T23:27:01;39.40;;;6.73;;
30010;SDS011;16851;53.564;8.112;2023-04-24T23:32:07;35.07;;;6.37;;
30010;SDS011;16851;53.564;8.112;2023-04-24T23:37:09;32.93;;;6.20;;
30010;SDS011;16851;53.564;8.112;2023-04-24T23:42:11;34.17;;;6.07;;
30010;SDS011;16851;53.564;8.112;2023-04-24T23:47:13;25.93;;;5.40;;
30010;SDS011;16851;53.564;8.112;2023-04-24T23:52:15;26.60;;;5.57;;
30010;SDS011;16851;53.564;8.112;2023-04-24T23:57:19;29.33;;;4.67;;
